Terminal Aerodrome Forecast
Issued by NWS

Home | Current Version | Previous Version | Text Only | Print | Product List | Glossary On
Versions: 1 2 3 4 5 6 7 8 9 10 11 12 13 14 15 16 17 18 19 20 21 22 23 24 25 26
000
FTUS44 KOUN 261731
TAFLAW
TAF
KLAW 261731Z 2618/2718 15014G20KT P6SM SCT035 BKN100
      TEMPO 2618/2619 5SM -TSRA BKN050CB
     FM262200 18015G23KT P6SM SCT035
      TEMPO 2700/2704 2SM +TSRA BKN025CB
     FM270400 15012G25KT 5SM -TSRA BR OVC015CB
     FM270600 18015G25KT P6SM BKN020=

USA.gov is the U.S. government's official web portal to all federal, state and local government web resources and services.